< < Back
Terminal Aerodrome Forecast


Current Version              Previous Versions:   1  2  3  4  5  6  7  8  9  

Terminal Aerodrome Forecast

499
FTUS44 KOHX 250100 AAA
TAFBNA
TAF AMD
KBNA 250147Z 2502/2524 15012KT P6SM VCSH SCT050 BKN100
      TEMPO 2502/2503 4SM SHRA OVC050
     FM250300 16012KT P6SM SCT050 BKN100
      TEMPO 2512/2516 3SM SHRA OVC025
     FM251600 18012G25KT P6SM SCT025 BKN040 PROB30 2518/2524 3SM
      TSRA OVC025CB=



Latest METAR

939
SAUS70 KWBC 251300 RRP
MTRBNA
METAR KBNA 251253Z 20004KT 8SM SCT032 BKN040 OVC065 19/18 A3018 RMK AO2
RAE49 SLP215 P0020 T01940178


USA.gov is the U.S. government's official web portal to all federal, state and local government web resources and services.